sensor_id;sensor_type;location;lat;lon;timestamp;P1;durP1;ratioP1;P2;durP2;ratioP2
75526;SDS011;64107;49.248;7.006;2023-06-22T00:01:16;12.50;;;8.82;;
75526;SDS011;64107;49.248;7.006;2023-06-22T00:03:42;10.15;;;7.25;;
75526;SDS011;64107;49.248;7.006;2023-06-22T00:06:08;9.02;;;6.22;;
75526;SDS011;64107;49.248;7.006;2023-06-22T00:08:34;11.80;;;6.68;;
75526;SDS011;64107;49.248;7.006;2023-06-22T00:11:00;11.85;;;7.53;;
75526;SDS011;64107;49.248;7.006;2023-06-22T00:13:26;9.73;;;7.38;;
75526;SDS011;64107;49.248;7.006;2023-06-22T00:15:52;9.30;;;7.20;;
75526;SDS011;64107;49.248;7.006;2023-06-22T00:18:18;10.77;;;7.95;;
75526;SDS011;64107;49.248;7.006;2023-06-22T00:20:45;10.07;;;7.97;;
75526;SDS011;64107;49.248;7.006;2023-06-22T00:23:11;11.07;;;7.03;;
75526;SDS011;64107;49.248;7.006;2023-06-22T00:25:40;10.13;;;7.20;;
75526;SDS011;64107;49.248;7.006;2023-06-22T00:28:07;9.90;;;6.97;;
75526;SDS011;64107;49.248;7.006;2023-06-22T00:30:33;9.43;;;7.40;;
75526;SDS011;64107;49.248;7.006;2023-06-22T00:32:59;10.25;;;6.90;;
75526;SDS011;64107;49.248;7.006;2023-06-22T00:35:26;10.50;;;7.45;;
75526;SDS011;64107;49.248;7.006;2023-06-22T00:37:55;8.50;;;6.45;;
75526;SDS011;64107;49.248;7.006;2023-06-22T00:40:30;10.07;;;7.47;;
75526;SDS011;64107;49.248;7.006;2023-06-22T00:42:57;10.82;;;7.75;;
75526;SDS011;64107;49.248;7.006;2023-06-22T00:45:24;7.65;;;6.38;;
75526;SDS011;64107;49.248;7.006;2023-06-22T00:47:53;10.35;;;7.72;;
75526;SDS011;64107;49.248;7.006;2023-06-22T00:50:24;10.07;;;8.10;;
75526;SDS011;64107;49.248;7.006;2023-06-22T00:52:53;10.50;;;7.65;;
75526;SDS011;64107;49.248;7.006;2023-06-22T00:55:24;11.57;;;7.53;;
75526;SDS011;64107;49.248;7.006;2023-06-22T00:57:52;9.77;;;7.35;;
75526;SDS011;64107;49.248;7.006;2023-06-22T01:00:20;9.38;;;6.43;;
75526;SDS011;64107;49.248;7.006;2023-06-22T01:02:49;10.90;;;7.15;;
75526;SDS011;64107;49.248;7.006;2023-06-22T01:05:17;12.48;;;7.80;;
75526;SDS011;64107;49.248;7.006;2023-06-22T01:07:48;13.13;;;9.15;;
75526;SDS011;64107;49.248;7.006;2023-06-22T01:12:52;11.55;;;7.22;;
75526;SDS011;64107;49.248;7.006;2023-06-22T01:15:28;10.63;;;7.40;;
75526;SDS011;64107;49.248;7.006;2023-06-22T01:17:58;12.52;;;7.88;;
75526;SDS011;64107;49.248;7.006;2023-06-22T01:20:25;12.85;;;7.07;;
75526;SDS011;64107;49.248;7.006;2023-06-22T01:25:43;11.93;;;5.90;;
75526;SDS011;64107;49.248;7.006;2023-06-22T01:28:20;11.00;;;6.43;;
75526;SDS011;64107;49.248;7.006;2023-06-22T01:30:59;7.72;;;6.38;;
75526;SDS011;64107;49.248;7.006;2023-06-22T01:33:31;12.32;;;7.22;;
75526;SDS011;64107;49.248;7.006;2023-06-22T01:36:00;10.65;;;7.10;;
75526;SDS011;64107;49.248;7.006;2023-06-22T01:38:26;10.32;;;7.47;;
75526;SDS011;64107;49.248;7.006;2023-06-22T01:40:54;12.35;;;7.47;;
75526;SDS011;64107;49.248;7.006;2023-06-22T01:43:21;10.20;;;6.97;;
75526;SDS011;64107;49.248;7.006;2023-06-22T01:45:50;11.10;;;6.93;;
75526;SDS011;64107;49.248;7.006;2023-06-22T01:48:17;10.35;;;7.03;;
75526;SDS011;64107;49.248;7.006;2023-06-22T01:50:43;9.90;;;6.97;;
75526;SDS011;64107;49.248;7.006;2023-06-22T01:53:10;9.30;;;7.05;;
75526;SDS011;64107;49.248;7.006;2023-06-22T01:55:36;10.50;;;7.22;;
75526;SDS011;64107;49.248;7.006;2023-06-22T01:58:02;11.10;;;7.38;;
75526;SDS011;64107;49.248;7.006;2023-06-22T02:00:28;9.88;;;7.50;;
75526;SDS011;64107;49.248;7.006;2023-06-22T02:03:02;8.98;;;7.07;;
75526;SDS011;64107;49.248;7.006;2023-06-22T02:05:33;9.98;;;6.47;;
75526;SDS011;64107;49.248;7.006;2023-06-22T02:08:07;10.65;;;7.25;;
75526;SDS011;64107;49.248;7.006;2023-06-22T02:10:36;12.52;;;7.22;;
75526;SDS011;64107;49.248;7.006;2023-06-22T02:13:06;10.60;;;7.55;;
75526;SDS011;64107;49.248;7.006;2023-06-22T02:15:33;8.38;;;6.85;;
75526;SDS011;64107;49.248;7.006;2023-06-22T02:17:59;10.80;;;6.95;;
75526;SDS011;64107;49.248;7.006;2023-06-22T02:20:25;10.07;;;8.05;;
75526;SDS011;64107;49.248;7.006;2023-06-22T02:22:51;9.68;;;6.45;;
75526;SDS011;64107;49.248;7.006;2023-06-22T02:25:17;11.93;;;7.28;;
75526;SDS011;64107;49.248;7.006;2023-06-22T02:27:44;10.57;;;7.32;;
75526;SDS011;64107;49.248;7.006;2023-06-22T02:30:11;10.50;;;7.45;;
75526;SDS011;64107;49.248;7.006;2023-06-22T02:32:39;11.02;;;7.80;;
75526;SDS011;64107;49.248;7.006;2023-06-22T02:35:07;11.57;;;8.35;;
75526;SDS011;64107;49.248;7.006;2023-06-22T02:37:36;11.88;;;7.85;;
75526;SDS011;64107;49.248;7.006;2023-06-22T02:40:06;12.00;;;7.88;;
75526;SDS011;64107;49.248;7.006;2023-06-22T02:42:36;12.75;;;7.38;;
75526;SDS011;64107;49.248;7.006;2023-06-22T02:45:04;11.82;;;8.23;;
75526;SDS011;64107;49.248;7.006;2023-06-22T02:47:31;11.00;;;7.38;;
75526;SDS011;64107;49.248;7.006;2023-06-22T02:49:57;8.98;;;7.28;;
75526;SDS011;64107;49.248;7.006;2023-06-22T02:52:23;10.65;;;7.90;;
75526;SDS011;64107;49.248;7.006;2023-06-22T02:54:49;10.50;;;7.55;;
75526;SDS011;64107;49.248;7.006;2023-06-22T02:57:15;10.18;;;8.07;;
75526;SDS011;64107;49.248;7.006;2023-06-22T02:59:41;11.55;;;7.32;;
75526;SDS011;64107;49.248;7.006;2023-06-22T03:02:08;10.68;;;7.55;;
75526;SDS011;64107;49.248;7.006;2023-06-22T03:04:34;9.40;;;6.30;;
75526;SDS011;64107;49.248;7.006;2023-06-22T03:07:01;10.27;;;6.88;;
75526;SDS011;64107;49.248;7.006;2023-06-22T03:09:27;10.82;;;7.93;;
75526;SDS011;64107;49.248;7.006;2023-06-22T03:11:54;9.73;;;7.35;;
75526;SDS011;64107;49.248;7.006;2023-06-22T03:14:20;10.05;;;8.18;;
75526;SDS011;64107;49.248;7.006;2023-06-22T03:16:46;11.18;;;8.60;;
75526;SDS011;64107;49.248;7.006;2023-06-22T03:19:12;12.18;;;8.30;;
75526;SDS011;64107;49.248;7.006;2023-06-22T03:21:39;12.07;;;8.52;;
75526;SDS011;64107;49.248;7.006;2023-06-22T03:24:06;12.85;;;8.63;;
75526;SDS011;64107;49.248;7.006;2023-06-22T03:26:32;13.55;;;8.27;;
75526;SDS011;64107;49.248;7.006;2023-06-22T03:28:59;12.60;;;8.57;;
75526;SDS011;64107;49.248;7.006;2023-06-22T03:31:25;10.77;;;7.45;;
75526;SDS011;64107;49.248;7.006;2023-06-22T03:33:51;10.50;;;7.63;;
75526;SDS011;64107;49.248;7.006;2023-06-22T03:36:17;10.27;;;7.93;;
75526;SDS011;64107;49.248;7.006;2023-06-22T03:38:44;11.05;;;8.23;;
75526;SDS011;64107;49.248;7.006;2023-06-22T03:41:10;11.45;;;7.53;;
75526;SDS011;64107;49.248;7.006;2023-06-22T03:43:37;11.07;;;8.52;;
75526;SDS011;64107;49.248;7.006;2023-06-22T03:46:03;14.43;;;8.82;;
75526;SDS011;64107;49.248;7.006;2023-06-22T03:48:29;12.80;;;10.02;;
75526;SDS011;64107;49.248;7.006;2023-06-22T03:50:55;11.88;;;8.48;;
75526;SDS011;64107;49.248;7.006;2023-06-22T03:53:21;17.48;;;10.00;;
75526;SDS011;64107;49.248;7.006;2023-06-22T03:55:50;13.52;;;8.95;;
75526;SDS011;64107;49.248;7.006;2023-06-22T03:58:18;14.02;;;9.05;;
75526;SDS011;64107;49.248;7.006;2023-06-22T04:00:45;14.68;;;10.35;;
75526;SDS011;64107;49.248;7.006;2023-06-22T04:03:12;14.43;;;9.85;;
75526;SDS011;64107;49.248;7.006;2023-06-22T04:05:39;13.07;;;8.95;;
75526;SDS011;64107;49.248;7.006;2023-06-22T04:08:05;11.80;;;8.55;;
75526;SDS011;64107;49.248;7.006;2023-06-22T04:10:31;14.55;;;10.27;;
75526;SDS011;64107;49.248;7.006;2023-06-22T04:12:57;14.52;;;8.70;;
75526;SDS011;64107;49.248;7.006;2023-06-22T04:15:23;15.20;;;9.98;;
75526;SDS011;64107;49.248;7.006;2023-06-22T04:17:49;13.63;;;9.88;;
75526;SDS011;64107;49.248;7.006;2023-06-22T04:20:15;14.30;;;8.95;;
75526;SDS011;64107;49.248;7.006;2023-06-22T04:22:41;14.38;;;8.63;;
75526;SDS011;64107;49.248;7.006;2023-06-22T04:25:07;13.57;;;9.63;;
75526;SDS011;64107;49.248;7.006;2023-06-22T04:27:33;12.43;;;7.90;;
75526;SDS011;64107;49.248;7.006;2023-06-22T04:30:05;13.43;;;8.75;;
75526;SDS011;64107;49.248;7.006;2023-06-22T04:32:33;10.13;;;8.48;;
75526;SDS011;64107;49.248;7.006;2023-06-22T04:35:01;12.65;;;9.38;;
75526;SDS011;64107;49.248;7.006;2023-06-22T04:37:29;12.35;;;8.93;;
75526;SDS011;64107;49.248;7.006;2023-06-22T04:39:55;13.00;;;8.82;;
75526;SDS011;64107;49.248;7.006;2023-06-22T04:42:22;11.95;;;8.43;;
75526;SDS011;64107;49.248;7.006;2023-06-22T04:44:48;10.48;;;8.65;;
75526;SDS011;64107;49.248;7.006;2023-06-22T04:47:14;13.70;;;8.65;;
75526;SDS011;64107;49.248;7.006;2023-06-22T04:49:40;11.50;;;8.40;;
75526;SDS011;64107;49.248;7.006;2023-06-22T04:52:08;11.40;;;8.45;;
75526;SDS011;64107;49.248;7.006;2023-06-22T04:54:36;10.70;;;8.27;;
75526;SDS011;64107;49.248;7.006;2023-06-22T04:57:03;10.27;;;6.72;;
75526;SDS011;64107;49.248;7.006;2023-06-22T04:59:35;13.60;;;8.13;;
75526;SDS011;64107;49.248;7.006;2023-06-22T05:02:04;8.75;;;7.25;;
75526;SDS011;64107;49.248;7.006;2023-06-22T05:04:31;10.00;;;7.18;;
75526;SDS011;64107;49.248;7.006;2023-06-22T05:06:59;9.23;;;7.68;;
75526;SDS011;64107;49.248;7.006;2023-06-22T05:09:26;11.02;;;6.80;;
75526;SDS011;64107;49.248;7.006;2023-06-22T05:11:52;10.45;;;6.90;;
75526;SDS011;64107;49.248;7.006;2023-06-22T05:14:18;11.85;;;6.70;;
75526;SDS011;64107;49.248;7.006;2023-06-22T05:16:44;9.00;;;6.88;;
75526;SDS011;64107;49.248;7.006;2023-06-22T05:19:11;11.20;;;7.60;;
75526;SDS011;64107;49.248;7.006;2023-06-22T05:21:37;9.07;;;6.28;;
75526;SDS011;64107;49.248;7.006;2023-06-22T05:24:04;10.05;;;8.45;;
75526;SDS011;64107;49.248;7.006;2023-06-22T05:26:30;11.95;;;6.72;;
75526;SDS011;64107;49.248;7.006;2023-06-22T05:28:58;11.88;;;7.78;;
75526;SDS011;64107;49.248;7.006;2023-06-22T05:31:26;11.82;;;6.28;;
75526;SDS011;64107;49.248;7.006;2023-06-22T05:33:52;11.00;;;7.72;;
75526;SDS011;64107;49.248;7.006;2023-06-22T05:36:19;10.63;;;8.40;;
75526;SDS011;64107;49.248;7.006;2023-06-22T05:38:46;14.15;;;7.75;;
75526;SDS011;64107;49.248;7.006;2023-06-22T05:41:12;10.00;;;7.63;;
75526;SDS011;64107;49.248;7.006;2023-06-22T05:43:39;9.95;;;6.93;;
75526;SDS011;64107;49.248;7.006;2023-06-22T05:46:05;9.55;;;7.55;;
75526;SDS011;64107;49.248;7.006;2023-06-22T05:48:31;13.25;;;8.45;;
75526;SDS011;64107;49.248;7.006;2023-06-22T05:50:57;11.38;;;7.10;;
75526;SDS011;64107;49.248;7.006;2023-06-22T05:53:23;13.88;;;7.63;;
75526;SDS011;64107;49.248;7.006;2023-06-22T05:55:49;9.30;;;8.07;;
75526;SDS011;64107;49.248;7.006;2023-06-22T05:58:15;10.75;;;8.07;;
75526;SDS011;64107;49.248;7.006;2023-06-22T06:00:42;14.07;;;8.38;;
75526;SDS011;64107;49.248;7.006;2023-06-22T06:03:08;11.07;;;8.13;;
75526;SDS011;64107;49.248;7.006;2023-06-22T06:05:35;9.75;;;6.43;;
75526;SDS011;64107;49.248;7.006;2023-06-22T06:08:03;11.95;;;7.93;;
75526;SDS011;64107;49.248;7.006;2023-06-22T06:10:30;9.68;;;7.22;;
75526;SDS011;64107;49.248;7.006;2023-06-22T06:12:57;9.77;;;7.55;;
75526;SDS011;64107;49.248;7.006;2023-06-22T06:15:23;13.32;;;7.25;;
75526;SDS011;64107;49.248;7.006;2023-06-22T06:17:52;12.93;;;7.70;;
75526;SDS011;64107;49.248;7.006;2023-06-22T06:20:19;9.40;;;6.65;;
75526;SDS011;64107;49.248;7.006;2023-06-22T06:22:47;9.50;;;6.32;;
75526;SDS011;64107;49.248;7.006;2023-06-22T06:25:13;10.05;;;7.38;;
75526;SDS011;64107;49.248;7.006;2023-06-22T06:27:44;13.85;;;7.75;;
75526;SDS011;64107;49.248;7.006;2023-06-22T06:30:11;8.65;;;7.25;;
75526;SDS011;64107;49.248;7.006;2023-06-22T06:32:39;11.73;;;6.68;;
75526;SDS011;64107;49.248;7.006;2023-06-22T06:35:06;9.68;;;7.00;;
75526;SDS011;64107;49.248;7.006;2023-06-22T06:37:36;9.73;;;5.95;;
75526;SDS011;64107;49.248;7.006;2023-06-22T06:40:04;12.07;;;7.18;;
75526;SDS011;64107;49.248;7.006;2023-06-22T06:42:35;8.70;;;5.85;;
75526;SDS011;64107;49.248;7.006;2023-06-22T06:45:19;8.05;;;6.68;;
75526;SDS011;64107;49.248;7.006;2023-06-22T06:47:50;10.95;;;7.05;;
75526;SDS011;64107;49.248;7.006;2023-06-22T06:50:17;9.68;;;7.53;;
75526;SDS011;64107;49.248;7.006;2023-06-22T06:52:43;9.93;;;7.07;;
75526;SDS011;64107;49.248;7.006;2023-06-22T06:55:09;9.00;;;6.50;;
75526;SDS011;64107;49.248;7.006;2023-06-22T06:57:37;9.43;;;6.80;;
75526;SDS011;64107;49.248;7.006;2023-06-22T07:00:07;9.55;;;6.70;;
75526;SDS011;64107;49.248;7.006;2023-06-22T07:02:37;9.57;;;6.50;;
75526;SDS011;64107;49.248;7.006;2023-06-22T07:05:07;9.27;;;6.63;;
75526;SDS011;64107;49.248;7.006;2023-06-22T07:07:34;8.55;;;7.07;;
75526;SDS011;64107;49.248;7.006;2023-06-22T07:10:00;9.32;;;6.70;;
75526;SDS011;64107;49.248;7.006;2023-06-22T07:12:26;9.60;;;6.10;;
75526;SDS011;64107;49.248;7.006;2023-06-22T07:14:52;9.95;;;7.45;;
75526;SDS011;64107;49.248;7.006;2023-06-22T07:17:19;9.13;;;6.25;;
75526;SDS011;64107;49.248;7.006;2023-06-22T07:19:45;11.20;;;6.97;;
75526;SDS011;64107;49.248;7.006;2023-06-22T07:22:11;9.85;;;5.93;;
75526;SDS011;64107;49.248;7.006;2023-06-22T07:24:37;10.90;;;7.22;;
75526;SDS011;64107;49.248;7.006;2023-06-22T07:27:03;9.02;;;7.00;;
75526;SDS011;64107;49.248;7.006;2023-06-22T07:29:31;9.48;;;6.35;;
75526;SDS011;64107;49.248;7.006;2023-06-22T07:31:58;10.40;;;7.30;;
75526;SDS011;64107;49.248;7.006;2023-06-22T07:34:25;8.63;;;5.88;;
75526;SDS011;64107;49.248;7.006;2023-06-22T07:36:51;8.20;;;6.05;;
75526;SDS011;64107;49.248;7.006;2023-06-22T07:39:17;9.73;;;7.72;;
75526;SDS011;64107;49.248;7.006;2023-06-22T07:41:43;10.88;;;6.70;;
75526;SDS011;64107;49.248;7.006;2023-06-22T07:44:09;9.88;;;6.70;;
75526;SDS011;64107;49.248;7.006;2023-06-22T07:46:36;10.20;;;6.72;;
75526;SDS011;64107;49.248;7.006;2023-06-22T07:49:02;9.88;;;6.95;;
75526;SDS011;64107;49.248;7.006;2023-06-22T07:51:28;9.70;;;5.75;;
75526;SDS011;64107;49.248;7.006;2023-06-22T07:53:54;12.68;;;6.80;;
75526;SDS011;64107;49.248;7.006;2023-06-22T07:56:20;8.23;;;5.90;;
75526;SDS011;64107;49.248;7.006;2023-06-22T07:58:47;9.25;;;6.05;;
75526;SDS011;64107;49.248;7.006;2023-06-22T08:01:13;10.43;;;6.40;;
75526;SDS011;64107;49.248;7.006;2023-06-22T08:03:40;8.55;;;6.88;;
75526;SDS011;64107;49.248;7.006;2023-06-22T08:06:06;7.32;;;6.15;;
75526;SDS011;64107;49.248;7.006;2023-06-22T08:08:34;9.13;;;6.53;;
75526;SDS011;64107;49.248;7.006;2023-06-22T08:11:00;8.77;;;5.72;;
75526;SDS011;64107;49.248;7.006;2023-06-22T08:13:26;7.47;;;6.25;;
75526;SDS011;64107;49.248;7.006;2023-06-22T08:15:52;10.50;;;6.40;;
75526;SDS011;64107;49.248;7.006;2023-06-22T08:18:18;9.13;;;6.40;;
75526;SDS011;64107;49.248;7.006;2023-06-22T08:20:45;8.65;;;6.75;;
75526;SDS011;64107;49.248;7.006;2023-06-22T08:23:11;10.25;;;6.00;;
75526;SDS011;64107;49.248;7.006;2023-06-22T08:25:37;9.25;;;6.53;;
75526;SDS011;64107;49.248;7.006;2023-06-22T08:28:03;8.52;;;6.50;;
75526;SDS011;64107;49.248;7.006;2023-06-22T08:30:30;8.65;;;6.80;;
75526;SDS011;64107;49.248;7.006;2023-06-22T08:32:56;7.50;;;6.80;;
75526;SDS011;64107;49.248;7.006;2023-06-22T08:35:22;8.93;;;5.93;;
75526;SDS011;64107;49.248;7.006;2023-06-22T08:37:49;7.97;;;5.53;;
75526;SDS011;64107;49.248;7.006;2023-06-22T08:40:20;6.90;;;5.93;;
75526;SDS011;64107;49.248;7.006;2023-06-22T08:42:47;8.48;;;6.05;;
75526;SDS011;64107;49.248;7.006;2023-06-22T08:45:14;9.70;;;6.13;;
75526;SDS011;64107;49.248;7.006;2023-06-22T08:47:40;7.53;;;5.75;;
75526;SDS011;64107;49.248;7.006;2023-06-22T08:50:07;6.13;;;4.90;;
75526;SDS011;64107;49.248;7.006;2023-06-22T08:52:34;6.18;;;4.80;;
75526;SDS011;64107;49.248;7.006;2023-06-22T08:55:01;7.80;;;5.18;;
75526;SDS011;64107;49.248;7.006;2023-06-22T08:57:28;7.80;;;5.22;;
75526;SDS011;64107;49.248;7.006;2023-06-22T08:59:55;7.40;;;5.18;;
75526;SDS011;64107;49.248;7.006;2023-06-22T09:02:23;8.00;;;4.90;;
75526;SDS011;64107;49.248;7.006;2023-06-22T09:04:55;12.27;;;5.32;;
75526;SDS011;64107;49.248;7.006;2023-06-22T09:07:24;7.72;;;5.93;;
75526;SDS011;64107;49.248;7.006;2023-06-22T09:09:51;5.60;;;4.63;;
75526;SDS011;64107;49.248;7.006;2023-06-22T09:12:17;7.90;;;5.78;;
75526;SDS011;64107;49.248;7.006;2023-06-22T09:14:45;9.20;;;5.30;;
75526;SDS011;64107;49.248;7.006;2023-06-22T09:17:12;6.40;;;4.32;;
75526;SDS011;64107;49.248;7.006;2023-06-22T09:19:38;7.28;;;4.90;;
75526;SDS011;64107;49.248;7.006;2023-06-22T09:22:04;8.35;;;4.65;;
75526;SDS011;64107;49.248;7.006;2023-06-22T09:24:31;6.30;;;3.90;;
75526;SDS011;64107;49.248;7.006;2023-06-22T09:26:58;6.22;;;4.75;;
75526;SDS011;64107;49.248;7.006;2023-06-22T09:29:24;5.57;;;4.57;;
75526;SDS011;64107;49.248;7.006;2023-06-22T09:31:50;7.82;;;4.43;;
75526;SDS011;64107;49.248;7.006;2023-06-22T09:34:18;8.52;;;4.32;;
75526;SDS011;64107;49.248;7.006;2023-06-22T09:36:45;7.20;;;4.82;;
75526;SDS011;64107;49.248;7.006;2023-06-22T09:39:11;7.65;;;4.43;;
75526;SDS011;64107;49.248;7.006;2023-06-22T09:41:37;8.85;;;4.68;;
75526;SDS011;64107;49.248;7.006;2023-06-22T09:44:04;6.25;;;5.53;;
75526;SDS011;64107;49.248;7.006;2023-06-22T09:46:30;8.73;;;4.82;;
75526;SDS011;64107;49.248;7.006;2023-06-22T09:48:56;6.53;;;4.72;;
75526;SDS011;64107;49.248;7.006;2023-06-22T09:51:22;7.60;;;5.05;;
75526;SDS011;64107;49.248;7.006;2023-06-22T09:53:49;9.75;;;4.28;;
75526;SDS011;64107;49.248;7.006;2023-06-22T09:56:16;7.53;;;5.00;;
75526;SDS011;64107;49.248;7.006;2023-06-22T09:58:42;6.38;;;4.50;;
75526;SDS011;64107;49.248;7.006;2023-06-22T10:01:09;6.85;;;4.50;;
75526;SDS011;64107;49.248;7.006;2023-06-22T10:03:35;5.93;;;4.78;;
75526;SDS011;64107;49.248;7.006;2023-06-22T10:06:02;5.72;;;3.83;;
75526;SDS011;64107;49.248;7.006;2023-06-22T10:08:28;8.65;;;5.43;;
75526;SDS011;64107;49.248;7.006;2023-06-22T10:10:54;8.48;;;4.82;;
75526;SDS011;64107;49.248;7.006;2023-06-22T10:13:20;7.43;;;4.60;;
75526;SDS011;64107;49.248;7.006;2023-06-22T10:15:46;9.55;;;4.82;;
75526;SDS011;64107;49.248;7.006;2023-06-22T10:18:16;7.18;;;4.35;;
75526;SDS011;64107;49.248;7.006;2023-06-22T10:20:47;6.72;;;4.40;;
75526;SDS011;64107;49.248;7.006;2023-06-22T10:23:16;7.50;;;4.68;;
75526;SDS011;64107;49.248;7.006;2023-06-22T10:25:42;8.90;;;4.32;;
75526;SDS011;64107;49.248;7.006;2023-06-22T10:28:08;6.78;;;4.20;;
75526;SDS011;64107;49.248;7.006;2023-06-22T10:30:34;7.05;;;4.15;;
75526;SDS011;64107;49.248;7.006;2023-06-22T10:33:00;7.38;;;4.68;;
75526;SDS011;64107;49.248;7.006;2023-06-22T10:35:26;6.82;;;4.53;;
75526;SDS011;64107;49.248;7.006;2023-06-22T10:37:53;8.68;;;4.80;;
75526;SDS011;64107;49.248;7.006;2023-06-22T10:40:19;7.35;;;4.13;;
75526;SDS011;64107;49.248;7.006;2023-06-22T10:42:45;7.88;;;4.72;;
75526;SDS011;64107;49.248;7.006;2023-06-22T10:45:11;8.82;;;3.90;;
75526;SDS011;64107;49.248;7.006;2023-06-22T10:47:38;8.85;;;4.63;;
75526;SDS011;64107;49.248;7.006;2023-06-22T10:50:07;8.48;;;5.30;;
75526;SDS011;64107;49.248;7.006;2023-06-22T10:52:33;8.65;;;5.10;;
75526;SDS011;64107;49.248;7.006;2023-06-22T10:54:59;6.38;;;4.68;;
75526;SDS011;64107;49.248;7.006;2023-06-22T10:57:25;8.15;;;4.72;;
75526;SDS011;64107;49.248;7.006;2023-06-22T10:59:51;7.22;;;3.63;;
75526;SDS011;64107;49.248;7.006;2023-06-22T11:02:17;6.82;;;3.03;;
75526;SDS011;64107;49.248;7.006;2023-06-22T11:04:43;7.75;;;4.35;;
75526;SDS011;64107;49.248;7.006;2023-06-22T11:07:11;6.20;;;4.03;;
75526;SDS011;64107;49.248;7.006;2023-06-22T11:09:37;7.50;;;3.60;;
75526;SDS011;64107;49.248;7.006;2023-06-22T11:12:04;9.15;;;3.08;;
75526;SDS011;64107;49.248;7.006;2023-06-22T11:14:31;8.77;;;3.80;;
75526;SDS011;64107;49.248;7.006;2023-06-22T11:16:58;9.48;;;4.28;;
75526;SDS011;64107;49.248;7.006;2023-06-22T11:19:24;7.15;;;3.70;;
75526;SDS011;64107;49.248;7.006;2023-06-22T11:21:50;7.30;;;4.07;;
75526;SDS011;64107;49.248;7.006;2023-06-22T11:24:16;7.32;;;3.47;;
75526;SDS011;64107;49.248;7.006;2023-06-22T11:26:43;8.40;;;3.92;;
75526;SDS011;64107;49.248;7.006;2023-06-22T11:29:09;8.75;;;3.80;;
75526;SDS011;64107;49.248;7.006;2023-06-22T11:31:35;12.05;;;4.05;;
75526;SDS011;64107;49.248;7.006;2023-06-22T11:34:01;11.02;;;4.40;;
75526;SDS011;64107;49.248;7.006;2023-06-22T11:36:28;7.45;;;4.05;;
75526;SDS011;64107;49.248;7.006;2023-06-22T11:38:57;9.15;;;4.70;;
75526;SDS011;64107;49.248;7.006;2023-06-22T11:41:24;12.90;;;4.80;;
75526;SDS011;64107;49.248;7.006;2023-06-22T11:43:50;8.82;;;5.10;;
75526;SDS011;64107;49.248;7.006;2023-06-22T11:46:16;5.82;;;3.67;;
75526;SDS011;64107;49.248;7.006;2023-06-22T11:48:42;8.80;;;4.13;;
75526;SDS011;64107;49.248;7.006;2023-06-22T11:51:08;7.78;;;4.40;;
75526;SDS011;64107;49.248;7.006;2023-06-22T11:53:34;7.70;;;4.50;;
75526;SDS011;64107;49.248;7.006;2023-06-22T11:56:00;10.52;;;4.30;;
75526;SDS011;64107;49.248;7.006;2023-06-22T11:58:26;8.68;;;4.90;;
75526;SDS011;64107;49.248;7.006;2023-06-22T12:00:53;9.18;;;4.57;;
75526;SDS011;64107;49.248;7.006;2023-06-22T12:03:19;7.22;;;4.07;;
75526;SDS011;64107;49.248;7.006;2023-06-22T12:05:49;7.20;;;3.72;;
75526;SDS011;64107;49.248;7.006;2023-06-22T12:08:16;6.93;;;3.75;;
75526;SDS011;64107;49.248;7.006;2023-06-22T12:10:42;6.75;;;3.65;;
75526;SDS011;64107;49.248;7.006;2023-06-22T12:13:08;4.53;;;2.65;;
75526;SDS011;64107;49.248;7.006;2023-06-22T12:15:34;8.63;;;4.18;;
75526;SDS011;64107;49.248;7.006;2023-06-22T12:18:00;7.75;;;4.40;;
75526;SDS011;64107;49.248;7.006;2023-06-22T12:20:26;7.20;;;3.47;;
75526;SDS011;64107;49.248;7.006;2023-06-22T12:22:52;9.50;;;4.63;;
75526;SDS011;64107;49.248;7.006;2023-06-22T12:25:21;10.02;;;3.65;;
75526;SDS011;64107;49.248;7.006;2023-06-22T12:27:47;9.52;;;4.85;;
75526;SDS011;64107;49.248;7.006;2023-06-22T12:30:14;9.63;;;3.85;;
75526;SDS011;64107;49.248;7.006;2023-06-22T12:32:40;9.00;;;3.20;;
75526;SDS011;64107;49.248;7.006;2023-06-22T12:35:06;10.93;;;3.80;;
75526;SDS011;64107;49.248;7.006;2023-06-22T12:37:38;13.32;;;3.13;;
75526;SDS011;64107;49.248;7.006;2023-06-22T12:40:05;6.57;;;3.20;;
75526;SDS011;64107;49.248;7.006;2023-06-22T12:42:32;6.32;;;3.58;;
75526;SDS011;64107;49.248;7.006;2023-06-22T12:44:58;11.38;;;4.22;;
75526;SDS011;64107;49.248;7.006;2023-06-22T12:47:24;6.28;;;3.70;;
75526;SDS011;64107;49.248;7.006;2023-06-22T12:49:50;8.18;;;3.75;;
75526;SDS011;64107;49.248;7.006;2023-06-22T12:52:16;8.95;;;3.72;;
75526;SDS011;64107;49.248;7.006;2023-06-22T12:54:42;9.57;;;3.05;;
75526;SDS011;64107;49.248;7.006;2023-06-22T12:57:08;8.43;;;3.85;;
75526;SDS011;64107;49.248;7.006;2023-06-22T12:59:34;8.20;;;3.35;;
75526;SDS011;64107;49.248;7.006;2023-06-22T13:02:00;4.75;;;3.03;;
75526;SDS011;64107;49.248;7.006;2023-06-22T13:04:26;6.47;;;3.50;;
75526;SDS011;64107;49.248;7.006;2023-06-22T13:06:52;6.68;;;3.33;;
75526;SDS011;64107;49.248;7.006;2023-06-22T13:09:19;8.35;;;3.47;;
75526;SDS011;64107;49.248;7.006;2023-06-22T13:11:45;9.00;;;3.63;;
75526;SDS011;64107;49.248;7.006;2023-06-22T13:14:11;6.38;;;3.60;;
75526;SDS011;64107;49.248;7.006;2023-06-22T13:16:37;4.65;;;2.40;;
75526;SDS011;64107;49.248;7.006;2023-06-22T13:19:03;6.10;;;3.78;;
75526;SDS011;64107;49.248;7.006;2023-06-22T13:21:30;6.07;;;2.78;;
75526;SDS011;64107;49.248;7.006;2023-06-22T13:23:56;9.27;;;3.28;;
75526;SDS011;64107;49.248;7.006;2023-06-22T13:26:22;8.27;;;3.13;;
75526;SDS011;64107;49.248;7.006;2023-06-22T13:28:49;8.13;;;3.22;;
75526;SDS011;64107;49.248;7.006;2023-06-22T13:31:15;7.75;;;3.20;;
75526;SDS011;64107;49.248;7.006;2023-06-22T13:33:41;7.15;;;2.65;;
75526;SDS011;64107;49.248;7.006;2023-06-22T13:36:07;7.78;;;2.47;;
75526;SDS011;64107;49.248;7.006;2023-06-22T13:38:34;10.07;;;3.08;;
75526;SDS011;64107;49.248;7.006;2023-06-22T13:41:03;5.90;;;2.28;;
75526;SDS011;64107;49.248;7.006;2023-06-22T13:43:29;4.50;;;2.15;;
75526;SDS011;64107;49.248;7.006;2023-06-22T13:45:56;5.72;;;2.13;;
75526;SDS011;64107;49.248;7.006;2023-06-22T13:48:22;4.18;;;1.98;;
75526;SDS011;64107;49.248;7.006;2023-06-22T13:50:48;3.53;;;2.25;;
75526;SDS011;64107;49.248;7.006;2023-06-22T13:53:14;5.40;;;2.28;;
75526;SDS011;64107;49.248;7.006;2023-06-22T13:55:40;2.90;;;1.95;;
75526;SDS011;64107;49.248;7.006;2023-06-22T13:58:07;7.63;;;2.90;;
75526;SDS011;64107;49.248;7.006;2023-06-22T14:00:33;9.48;;;2.85;;
75526;SDS011;64107;49.248;7.006;2023-06-22T14:02:59;6.97;;;2.20;;
75526;SDS011;64107;49.248;7.006;2023-06-22T14:05:25;9.73;;;3.90;;
75526;SDS011;64107;49.248;7.006;2023-06-22T14:07:51;7.55;;;3.40;;
75526;SDS011;64107;49.248;7.006;2023-06-22T14:10:17;9.15;;;3.30;;
75526;SDS011;64107;49.248;7.006;2023-06-22T14:12:43;11.20;;;3.13;;
75526;SDS011;64107;49.248;7.006;2023-06-22T14:15:09;4.82;;;2.60;;
75526;SDS011;64107;49.248;7.006;2023-06-22T14:17:35;4.18;;;1.95;;
75526;SDS011;64107;49.248;7.006;2023-06-22T14:20:02;3.92;;;2.25;;
75526;SDS011;64107;49.248;7.006;2023-06-22T14:22:28;6.60;;;2.33;;
75526;SDS011;64107;49.248;7.006;2023-06-22T14:24:54;5.70;;;2.92;;
75526;SDS011;64107;49.248;7.006;2023-06-22T14:27:22;4.75;;;2.08;;
75526;SDS011;64107;49.248;7.006;2023-06-22T14:29:48;6.65;;;3.58;;
75526;SDS011;64107;49.248;7.006;2023-06-22T14:32:14;8.60;;;2.95;;
75526;SDS011;64107;49.248;7.006;2023-06-22T14:34:40;11.35;;;2.17;;
75526;SDS011;64107;49.248;7.006;2023-06-22T14:37:07;6.00;;;2.00;;
75526;SDS011;64107;49.248;7.006;2023-06-22T14:39:37;3.67;;;1.85;;
75526;SDS011;64107;49.248;7.006;2023-06-22T14:42:04;8.75;;;2.17;;
75526;SDS011;64107;49.248;7.006;2023-06-22T14:44:30;7.93;;;1.60;;
75526;SDS011;64107;49.248;7.006;2023-06-22T14:46:56;11.00;;;3.10;;